createdAt,value
2022-09-15T00:00:32.560Z,3.00
2022-09-15T00:02:59.441Z,2.42
2022-09-15T00:05:27.013Z,2.85
2022-09-15T00:07:53.624Z,2.50
2022-09-15T00:10:20.755Z,2.30
2022-09-15T00:12:47.390Z,2.65
2022-09-15T00:15:15.245Z,2.40
2022-09-15T00:17:47.667Z,2.60
2022-09-15T00:20:14.292Z,2.60
2022-09-15T00:22:40.951Z,3.22
2022-09-15T00:25:07.913Z,2.70
2022-09-15T00:27:34.889Z,2.88
2022-09-15T00:30:01.728Z,2.72
2022-09-15T00:32:29.954Z,2.80
2022-09-15T00:37:23.608Z,2.55
2022-09-15T00:39:50.612Z,3.15
2022-09-15T00:42:23.925Z,3.20
2022-09-15T00:44:57.981Z,3.08
2022-09-15T00:47:31.654Z,3.42
2022-09-15T00:50:04.862Z,3.63
2022-09-15T00:52:52.893Z,4.45
2022-09-15T00:58:04.021Z,5.28
2022-09-15T01:00:30.811Z,5.93
2022-09-15T01:02:59.047Z,5.15
2022-09-15T01:05:43.733Z,5.80
2022-09-15T01:08:17.633Z,4.88
2022-09-15T01:10:46.755Z,5.72
2022-09-15T01:13:14.943Z,6.15
2022-09-15T01:16:02.756Z,5.57
2022-09-15T01:18:37.317Z,6.20
2022-09-15T01:21:12.886Z,6.30
2022-09-15T01:23:48.323Z,6.90
2022-09-15T01:26:14.881Z,5.68
2022-09-15T01:28:56.721Z,7.03
2022-09-15T01:31:34.023Z,5.90
2022-09-15T01:34:08.086Z,5.57
2022-09-15T01:36:52.103Z,5.28
2022-09-15T01:39:27.183Z,4.70
2022-09-15T01:42:03.965Z,5.68
2022-09-15T01:44:36.428Z,5.43
2022-09-15T01:47:07.947Z,4.93
2022-09-15T01:49:42.368Z,6.53
2022-09-15T01:52:09.112Z,6.43
2022-09-15T01:54:45.859Z,5.28
2022-09-15T01:57:12.724Z,5.55
2022-09-15T01:59:39.372Z,5.60
2022-09-15T02:02:14.621Z,5.63
2022-09-15T02:04:48.399Z,6.00
2022-09-15T02:07:20.056Z,5.40
2022-09-15T02:10:08.054Z,5.18
2022-09-15T02:15:15.044Z,4.68
2022-09-15T02:17:46.143Z,5.05
2022-09-15T02:20:25.369Z,4.35
2022-09-15T02:22:57.299Z,4.70
2022-09-15T02:25:33.913Z,4.80
2022-09-15T02:28:06.529Z,4.28
2022-09-15T02:30:40.432Z,4.40
2022-09-15T02:33:12.046Z,4.80
2022-09-15T02:35:40.150Z,4.20
2022-09-15T02:38:09.152Z,5.00
2022-09-15T02:40:39.268Z,4.70
2022-09-15T02:43:10.969Z,4.20
2022-09-15T02:45:37.569Z,4.78
2022-09-15T02:48:04.686Z,4.75
2022-09-15T02:50:31.384Z,4.50
2022-09-15T02:52:58.003Z,5.72
2022-09-15T02:55:29.039Z,4.88
2022-09-15T02:57:59.614Z,4.50
2022-09-15T03:00:28.420Z,4.47
2022-09-15T03:02:55.616Z,4.80
2022-09-15T03:05:27.537Z,4.18
2022-09-15T03:07:55.050Z,4.40
2022-09-15T03:10:23.573Z,4.30
2022-09-15T03:12:52.452Z,4.20
2022-09-15T03:15:22.000Z,3.75
2022-09-15T03:17:49.622Z,4.28
2022-09-15T03:20:20.258Z,3.83
2022-09-15T03:22:47.820Z,4.30
2022-09-15T03:25:14.521Z,3.90
2022-09-15T03:27:42.402Z,4.03
2022-09-15T03:30:10.103Z,4.10
2022-09-15T03:32:37.214Z,3.80
2022-09-15T03:35:05.155Z,3.60
2022-09-15T03:37:31.943Z,4.00
2022-09-15T03:39:58.979Z,3.90
2022-09-15T03:42:25.669Z,4.05
2022-09-15T03:44:52.722Z,4.13
2022-09-15T03:47:19.276Z,4.00
2022-09-15T03:49:45.889Z,3.97
2022-09-15T03:52:12.520Z,4.00
2022-09-15T03:54:40.031Z,3.95
2022-09-15T03:57:06.699Z,3.97
2022-09-15T03:59:33.369Z,4.22
2022-09-15T04:02:00.155Z,5.20
2022-09-15T04:04:27.014Z,3.85
2022-09-15T04:06:53.605Z,4.22
2022-09-15T04:09:21.464Z,4.55
2022-09-15T04:11:48.239Z,4.18
2022-09-15T04:14:14.876Z,4.70
2022-09-15T04:16:41.547Z,3.65
2022-09-15T04:19:08.233Z,4.50
2022-09-15T04:21:34.858Z,4.97
2022-09-15T04:24:01.778Z,4.78
2022-09-15T04:26:31.369Z,4.90
2022-09-15T04:29:03.658Z,4.47
2022-09-15T04:31:32.177Z,4.97
2022-09-15T04:33:59.346Z,4.55
2022-09-15T04:36:28.411Z,5.10
2022-09-15T04:38:55.757Z,4.90
2022-09-15T04:41:22.884Z,5.18
2022-09-15T04:43:49.933Z,5.32
2022-09-15T04:46:18.477Z,5.22
2022-09-15T04:48:46.277Z,5.18
2022-09-15T04:51:18.734Z,5.20
2022-09-15T04:53:45.711Z,5.13
2022-09-15T04:56:15.488Z,5.30
2022-09-15T04:58:44.913Z,5.95
2022-09-15T05:01:14.919Z,5.32
2022-09-15T05:03:42.792Z,5.00
2022-09-15T05:06:11.850Z,4.75
2022-09-15T05:08:38.749Z,5.22
2022-09-15T05:11:07.869Z,5.40
2022-09-15T05:13:35.438Z,4.63
2022-09-15T05:16:07.517Z,4.70
2022-09-15T05:18:35.257Z,4.88
2022-09-15T05:21:04.281Z,5.00
2022-09-15T05:23:31.199Z,3.97
2022-09-15T05:26:00.376Z,4.22
2022-09-15T05:28:28.010Z,3.75
2022-09-15T05:30:55.583Z,4.00
2022-09-15T05:33:23.504Z,3.63
2022-09-15T05:35:54.944Z,3.50
2022-09-15T05:38:21.833Z,3.83
2022-09-15T05:40:49.024Z,3.47
2022-09-15T05:43:17.159Z,3.70
2022-09-15T05:45:44.304Z,3.58
2022-09-15T05:48:12.383Z,2.97
2022-09-15T05:50:39.597Z,3.53
2022-09-15T05:53:07.487Z,3.13
2022-09-15T05:55:38.110Z,3.20
2022-09-15T05:58:04.754Z,2.97
2022-09-15T06:00:31.533Z,2.80
2022-09-15T06:02:58.167Z,2.90
2022-09-15T06:05:24.912Z,2.95
2022-09-15T06:07:55.233Z,3.08
2022-09-15T06:10:24.658Z,3.13
2022-09-15T06:12:54.838Z,2.90
2022-09-15T06:15:22.718Z,2.47
2022-09-15T06:17:49.526Z,2.80
2022-09-15T06:20:16.298Z,2.70
2022-09-15T06:22:42.885Z,2.90
2022-09-15T06:25:09.582Z,2.50
2022-09-15T06:27:36.351Z,3.08
2022-09-15T06:30:03.742Z,2.78
2022-09-15T06:32:30.316Z,2.90
2022-09-15T06:34:56.920Z,2.42
2022-09-15T06:37:23.519Z,2.90
2022-09-15T06:39:53.079Z,2.72
2022-09-15T06:42:19.734Z,2.72
2022-09-15T06:44:47.490Z,2.70
2022-09-15T06:47:16.990Z,2.40
2022-09-15T06:49:43.552Z,2.58
2022-09-15T15:05:15.319Z,5.40
2022-09-15T15:07:43.501Z,5.18
2022-09-15T15:10:33.482Z,5.40
2022-09-15T15:13:07.339Z,4.30
2022-09-15T15:15:34.530Z,4.43
2022-09-15T15:18:05.427Z,3.47
2022-09-15T15:20:32.215Z,2.30
2022-09-15T15:23:20.268Z,2.40
2022-09-15T15:28:37.052Z,1.60
2022-09-15T15:31:22.647Z,1.90
2022-09-15T15:33:53.553Z,1.92
2022-09-15T15:36:23.955Z,1.95
2022-09-15T15:38:58.373Z,2.42
2022-09-15T15:41:28.692Z,2.00
2022-09-15T15:44:08.260Z,2.28
2022-09-15T15:47:13.237Z,2.50
2022-09-15T15:50:02.222Z,2.80
2022-09-15T15:52:26.415Z,3.10
2022-09-15T15:54:53.450Z,3.13
2022-09-15T15:57:25.878Z,3.20
2022-09-15T15:59:58.426Z,3.47
2022-09-15T16:02:27.946Z,3.28
2022-09-15T16:04:54.968Z,3.88
2022-09-15T16:07:23.976Z,3.70
2022-09-15T16:09:51.019Z,3.70
2022-09-15T16:12:17.591Z,4.53
2022-09-15T16:14:44.137Z,3.70
2022-09-15T16:17:10.839Z,3.97
2022-09-15T16:19:37.420Z,4.10
2022-09-15T16:22:04.609Z,3.50
2022-09-15T16:24:31.189Z,3.63
2022-09-15T16:26:58.415Z,3.55
2022-09-15T16:29:29.140Z,4.40
2022-09-15T16:31:55.835Z,3.85
2022-09-15T16:34:22.938Z,4.20
2022-09-15T16:36:49.494Z,3.08
2022-09-15T16:39:16.126Z,3.40
2022-09-15T16:41:42.730Z,3.60
2022-09-15T16:44:19.801Z,4.00
2022-09-15T16:46:46.500Z,3.75
2022-09-15T16:49:13.289Z,3.47
2022-09-15T16:51:39.859Z,3.65
2022-09-15T16:54:15.548Z,4.50
2022-09-15T16:56:42.406Z,4.55
2022-09-15T16:59:09.093Z,4.50
2022-09-15T17:01:35.984Z,4.25
2022-09-15T17:04:03.601Z,3.92
2022-09-15T17:06:30.292Z,5.78
2022-09-15T17:08:56.885Z,5.10
2022-09-15T17:11:25.434Z,4.30
2022-09-15T17:13:52.675Z,3.85
2022-09-15T17:16:19.955Z,3.58
2022-09-15T17:18:46.946Z,3.92
2022-09-15T17:21:15.381Z,3.33
2022-09-15T17:23:45.216Z,3.60
2022-09-15T17:26:28.799Z,3.70
2022-09-15T17:28:58.301Z,4.35
2022-09-15T17:31:25.181Z,4.57
2022-09-15T17:33:52.518Z,4.70
2022-09-15T17:36:19.428Z,4.65
2022-09-15T17:38:48.010Z,4.78
2022-09-15T17:41:16.951Z,5.38
2022-09-15T17:43:43.654Z,5.20
2022-09-15T17:46:10.520Z,4.85
2022-09-15T17:48:38.845Z,5.10
2022-09-15T17:53:39.416Z,5.28
2022-09-15T17:56:06.234Z,5.50
2022-09-15T17:58:33.320Z,4.90
2022-09-15T18:01:00.303Z,4.80
2022-09-15T18:03:34.673Z,5.22
2022-09-15T18:06:05.197Z,5.20
2022-09-15T18:08:35.864Z,5.20
2022-09-15T18:11:03.519Z,5.10
2022-09-15T18:13:31.236Z,5.20
2022-09-15T18:15:58.555Z,5.20
2022-09-15T18:18:27.658Z,5.13
2022-09-15T18:20:57.749Z,4.95
2022-09-15T18:23:26.212Z,5.00
2022-09-15T18:25:52.882Z,5.60
2022-09-15T18:28:19.530Z,5.50
2022-09-15T18:30:48.222Z,5.30
2022-09-15T18:33:19.870Z,6.03
2022-09-15T18:35:51.228Z,5.32
2022-09-15T18:38:18.845Z,5.15
2022-09-15T18:40:55.193Z,4.88
2022-09-15T18:43:23.205Z,5.82
2022-09-15T18:45:50.303Z,5.55
2022-09-15T18:48:17.044Z,5.53
2022-09-15T18:50:44.558Z,5.35
2022-09-15T18:53:11.964Z,5.20
2022-09-15T18:55:41.848Z,5.03
2022-09-15T18:58:09.045Z,5.22
2022-09-15T19:00:35.867Z,5.20
2022-09-15T19:03:05.201Z,5.03
2022-09-15T19:05:33.415Z,5.95
2022-09-15T19:08:00.992Z,5.75
2022-09-15T19:10:27.676Z,5.60
2022-09-15T19:12:54.675Z,5.53
2022-09-15T19:15:24.439Z,5.10
2022-09-15T19:17:51.692Z,5.35
2022-09-15T19:20:18.376Z,5.20
2022-09-15T19:22:46.045Z,5.40
2022-09-15T19:25:14.546Z,6.10
2022-09-15T19:27:41.780Z,6.00
2022-09-15T19:30:10.094Z,5.50
2022-09-15T19:32:39.058Z,5.45
2022-09-15T19:35:07.605Z,5.03
2022-09-15T19:37:37.412Z,5.70
2022-09-15T19:40:09.831Z,5.47
2022-09-15T19:42:38.663Z,5.60
2022-09-15T19:45:07.192Z,5.75
2022-09-15T19:47:35.466Z,7.47
2022-09-15T19:52:28.951Z,5.90
2022-09-15T19:54:55.942Z,6.20
2022-09-15T19:57:23.270Z,6.00
2022-09-15T19:59:50.418Z,5.63
2022-09-15T20:02:17.381Z,6.03
2022-09-15T20:04:44.546Z,6.13
2022-09-15T20:07:12.612Z,6.03
2022-09-15T20:09:39.539Z,6.93
2022-09-15T20:12:06.592Z,5.93
2022-09-15T20:14:33.346Z,5.72
2022-09-15T20:17:01.281Z,6.07
2022-09-15T20:19:29.547Z,5.93
2022-09-15T20:21:56.514Z,5.90
2022-09-15T20:24:24.229Z,5.35
2022-09-15T20:26:51.610Z,5.85
2022-09-15T20:29:18.971Z,5.75
2022-09-15T20:31:46.227Z,5.78
2022-09-15T20:34:13.374Z,5.25
2022-09-15T20:36:40.348Z,5.63
2022-09-15T20:39:12.779Z,5.88
2022-09-15T20:41:40.946Z,5.55
2022-09-15T20:44:10.879Z,5.60
2022-09-15T20:46:37.713Z,6.55
2022-09-15T20:49:05.088Z,6.40
2022-09-15T20:51:33.543Z,6.25
2022-09-15T20:54:03.510Z,6.00
2022-09-15T20:56:32.192Z,5.30
2022-09-15T20:59:00.300Z,5.57
2022-09-15T21:01:34.299Z,5.03
2022-09-15T21:04:01.602Z,5.35
2022-09-15T21:06:29.252Z,4.85
2022-09-15T21:08:57.700Z,5.75
2022-09-15T21:13:52.170Z,5.63
